Time;durP1;ratioP1;P1;durP2;ratioP2;P2;SDS_P1;SDS_P2;PMS_P1;PMS_P2;Temp;Humidity;BMP_temperature;BMP_pressure;BME280_temperature;BME280_humidity;BME280_pressure;Samples;Min_cycle;Max_cycle;Signal;HPM_P1;HPM_P2
2022/08/18 00:02:01;;;;;;;4.87;4.47;;;;;;;;;;5048632;28;20197;-78
2022/08/18 00:04:30;;;;;;;4.63;4.27;;;;;;;;;;5051215;28;20672;-77
2022/08/18 00:06:57;;;;;;;7.27;3.80;;;;;;;;;;5050101;28;20201;-78
2022/08/18 00:09:24;;;;;;;4.70;4.30;;;;;;;;;;5053936;28;20201;-77
2022/08/18 00:11:51;;;;;;;5.27;4.00;;;;;;;;;;5069998;28;20229;-78
2022/08/18 00:14:20;;;;;;;5.03;4.20;;;;;;;;;;5053936;28;20239;-77
2022/08/18 00:16:47;;;;;;;5.13;4.43;;;;;;;;;;5053550;28;20202;-77
2022/08/18 00:19:15;;;;;;;6.57;4.50;;;;;;;;;;5052945;28;20206;-78
2022/08/18 00:21:43;;;;;;;4.30;3.90;;;;;;;;;;5055396;28;20212;-77
2022/08/18 00:24:10;;;;;;;4.73;4.37;;;;;;;;;;5053869;28;20571;-78
2022/08/18 00:26:38;;;;;;;4.90;4.43;;;;;;;;;;5070076;28;20601;-78
2022/08/18 00:29:05;;;;;;;4.30;3.80;;;;;;;;;;5053498;28;20202;-77
2022/08/18 00:31:32;;;;;;;7.13;4.73;;;;;;;;;;5054639;28;20221;-78
2022/08/18 00:33:59;;;;;;;4.20;3.90;;;;;;;;;;5055094;28;20201;-78
2022/08/18 00:36:26;;;;;;;4.80;4.43;;;;;;;;;;5053059;28;20229;-78
2022/08/18 00:38:55;;;;;;;4.73;4.40;;;;;;;;;;5052541;28;20198;-78
2022/08/18 00:41:26;;;;;;;6.47;4.60;;;;;;;;;;5053523;28;20205;-77
2022/08/18 00:43:55;;;;;;;5.67;5.07;;;;;;;;;;5052146;28;20194;-78
2022/08/18 00:46:24;;;;;;;5.50;4.60;;;;;;;;;;5065356;28;20256;-77
2022/08/18 00:48:51;;;;;;;9.50;4.80;;;;;;;;;;5056954;28;20664;-77
2022/08/18 00:51:22;;;;;;;5.00;4.47;;;;;;;;;;5052149;28;20274;-78
2022/08/18 00:53:52;;;;;;;5.50;4.43;;;;;;;;;;5052161;28;20201;-77
2022/08/18 00:56:24;;;;;;;4.87;4.47;;;;;;;;;;5052890;28;20588;-77
2022/08/18 00:58:58;;;;;;;5.10;4.70;;;;;;;;;;5053743;28;20247;-77
2022/08/18 01:01:27;;;;;;;5.10;4.70;;;;;;;;;;5051835;28;20205;-77
2022/08/18 01:03:59;;;;;;;4.93;4.50;;;;;;;;;;5053398;28;20198;-77
2022/08/18 01:06:31;;;;;;;5.37;4.87;;;;;;;;;;5052982;28;20201;-77
2022/08/18 01:08:58;;;;;;;5.00;4.50;;;;;;;;;;5053571;28;20198;-77
2022/08/18 01:11:27;;;;;;;5.93;4.37;;;;;;;;;;5052619;28;20221;-77
2022/08/18 01:13:54;;;;;;;5.40;4.80;;;;;;;;;;5052434;28;20698;-77
2022/08/18 01:21:52;;;;;;;7.70;4.73;;;;;;;;;;5052441;28;20293;-78
2022/08/18 01:25:58;;;;;;;6.23;5.63;;;;;;;;;;5052306;28;20730;-78
2022/08/18 01:27:13;;;;;;;5.07;3.83;;;;;;;;;;5052542;28;20229;-79
2022/08/18 01:29:41;;;;;;;5.80;4.83;;;;;;;;;;5052772;28;20194;-78
2022/08/18 01:32:08;;;;;;;7.63;4.57;;;;;;;;;;5052800;28;20234;-78
2022/08/18 01:34:36;;;;;;;5.17;4.67;;;;;;;;;;5052660;28;20206;-78
2022/08/18 01:37:04;;;;;;;5.30;4.80;;;;;;;;;;5051857;28;20287;-77
2022/08/18 01:39:34;;;;;;;5.57;5.07;;;;;;;;;;5050964;28;20259;-77
2022/08/18 01:42:03;;;;;;;5.33;4.93;;;;;;;;;;5034981;28;20202;-77
2022/08/18 01:44:31;;;;;;;5.03;4.53;;;;;;;;;;5052661;28;20200;-77
2022/08/18 01:46:58;;;;;;;5.03;4.63;;;;;;;;;;5053529;28;20229;-78
2022/08/18 01:49:27;;;;;;;5.23;4.83;;;;;;;;;;5036239;28;20201;-78
2022/08/18 01:51:54;;;;;;;5.80;5.30;;;;;;;;;;5051883;28;20718;-77
2022/08/18 01:54:22;;;;;;;4.87;4.47;;;;;;;;;;5050647;28;20201;-78
2022/08/18 01:56:52;;;;;;;5.70;4.37;;;;;;;;;;5053672;28;20205;-77
2022/08/18 01:59:19;;;;;;;5.13;4.50;;;;;;;;;;5051700;28;20236;-78
2022/08/18 02:01:47;;;;;;;4.97;4.57;;;;;;;;;;5051792;28;20197;-77
2022/08/18 02:04:15;;;;;;;4.90;4.50;;;;;;;;;;5053265;28;20608;-77
2022/08/18 02:06:43;;;;;;;7.73;5.17;;;;;;;;;;5051579;28;20260;-77
2022/08/18 02:09:10;;;;;;;6.90;4.67;;;;;;;;;;5035493;28;20770;-77
2022/08/18 02:11:37;;;;;;;6.27;4.90;;;;;;;;;;5051957;28;20229;-78
2022/08/18 02:14:06;;;;;;;5.10;4.80;;;;;;;;;;5052691;28;20214;-78
2022/08/18 02:16:34;;;;;;;5.03;4.50;;;;;;;;;;5052571;28;20288;-78
2022/08/18 02:19:01;;;;;;;5.67;5.23;;;;;;;;;;5051651;28;20237;-78
2022/08/18 02:21:28;;;;;;;8.17;5.90;;;;;;;;;;5067814;28;20251;-77
2022/08/18 02:23:55;;;;;;;5.73;4.47;;;;;;;;;;5067948;28;20553;-77
2022/08/18 02:26:22;;;;;;;6.03;5.10;;;;;;;;;;5051087;28;20229;-77
2022/08/18 02:28:49;;;;;;;5.40;4.90;;;;;;;;;;5051776;28;20202;-77
2022/08/18 02:31:20;;;;;;;5.80;5.00;;;;;;;;;;5051486;28;20210;-77
2022/08/18 02:33:48;;;;;;;9.77;5.40;;;;;;;;;;5049328;28;20197;-77
2022/08/18 02:36:15;;;;;;;5.97;5.47;;;;;;;;;;5052319;28;20205;-76
2022/08/18 02:38:43;;;;;;;5.13;4.73;;;;;;;;;;5067536;28;20657;-77
2022/08/18 02:41:13;;;;;;;5.97;4.50;;;;;;;;;;5052225;28;20213;-77
2022/08/18 02:43:42;;;;;;;5.93;5.00;;;;;;;;;;5033483;28;20292;-78
2022/08/18 02:46:10;;;;;;;4.93;4.47;;;;;;;;;;5067442;28;20208;-77
2022/08/18 02:48:38;;;;;;;5.57;4.97;;;;;;;;;;5052104;28;20202;-77
2022/08/18 02:51:08;;;;;;;6.87;4.77;;;;;;;;;;5050455;28;20220;-77
2022/08/18 02:53:36;;;;;;;6.13;4.77;;;;;;;;;;5052020;28;20198;-76
2022/08/18 02:56:18;;;;;;;5.80;5.37;;;;;;;;;;5050623;28;20237;-78
2022/08/18 02:58:45;;;;;;;6.60;4.87;;;;;;;;;;5052085;28;20225;-77
2022/08/18 03:04:36;;;;;;;5.23;4.73;;;;;;;;;;5052264;28;20219;-77
2022/08/18 03:07:06;;;;;;;6.17;5.10;;;;;;;;;;5050466;28;20292;-77
2022/08/18 03:09:33;;;;;;;6.27;5.07;;;;;;;;;;5051838;28;20275;-77
2022/08/18 03:12:01;;;;;;;5.03;4.63;;;;;;;;;;5051625;28;20257;-77
2022/08/18 03:14:28;;;;;;;5.30;4.80;;;;;;;;;;5050660;28;20255;-77
2022/08/18 03:16:55;;;;;;;5.00;4.50;;;;;;;;;;5067051;28;20204;-77
2022/08/18 03:19:24;;;;;;;6.00;4.87;;;;;;;;;;5045477;28;20191;-78
2022/08/18 03:21:54;;;;;;;4.93;4.53;;;;;;;;;;5032273;28;20209;-77
2022/08/18 03:24:21;;;;;;;5.40;4.90;;;;;;;;;;5030681;28;20287;-78
2022/08/18 03:26:48;;;;;;;7.20;4.63;;;;;;;;;;5031676;28;20621;-77
2022/08/18 03:29:15;;;;;;;6.43;4.83;;;;;;;;;;5014145;28;20202;-77
2022/08/18 03:31:44;;;;;;;5.93;5.27;;;;;;;;;;5029947;28;20295;-78
2022/08/18 03:34:11;;;;;;;7.57;5.53;;;;;;;;;;5030243;28;20623;-79
2022/08/18 03:36:40;;;;;;;5.93;5.07;;;;;;;;;;5032043;28;20689;-77
2022/08/18 03:39:11;;;;;;;5.03;4.63;;;;;;;;;;5047392;28;20206;-78
2022/08/18 03:41:40;;;;;;;6.03;4.77;;;;;;;;;;5051349;28;20209;-77
2022/08/18 03:44:07;;;;;;;6.40;5.67;;;;;;;;;;5054480;28;20201;-78
2022/08/18 03:46:34;;;;;;;7.07;6.37;;;;;;;;;;5055517;28;20676;-78
2022/08/18 03:49:02;;;;;;;11.20;5.20;;;;;;;;;;5053946;28;20589;-78
2022/08/18 03:51:32;;;;;;;5.47;4.90;;;;;;;;;;5034091;28;20264;-77
2022/08/18 03:54:02;;;;;;;6.07;5.43;;;;;;;;;;5034666;28;20203;-77
2022/08/18 03:56:33;;;;;;;6.13;5.63;;;;;;;;;;5035702;28;20205;-78
2022/08/18 03:59:03;;;;;;;6.17;5.50;;;;;;;;;;5051188;28;20214;-78
2022/08/18 04:01:31;;;;;;;5.80;5.30;;;;;;;;;;5035600;28;20206;-78
2022/08/18 04:04:01;;;;;;;8.83;5.23;;;;;;;;;;5035468;28;20206;-78
2022/08/18 04:06:30;;;;;;;5.87;5.30;;;;;;;;;;5029198;28;20203;-78
2022/08/18 04:08:59;;;;;;;6.27;5.67;;;;;;;;;;5027969;28;20698;-77
2022/08/18 04:11:27;;;;;;;5.67;5.20;;;;;;;;;;5033693;28;20198;-78
2022/08/18 04:13:56;;;;;;;5.20;4.73;;;;;;;;;;5033726;28;20198;-78
2022/08/18 04:16:24;;;;;;;8.03;5.83;;;;;;;;;;5034155;28;20195;-79
2022/08/18 04:18:51;;;;;;;6.57;4.97;;;;;;;;;;5034076;28;20195;-77
2022/08/18 04:21:18;;;;;;;12.00;6.17;;;;;;;;;;5034456;28;20205;-85
2022/08/18 04:23:45;;;;;;;6.37;5.67;;;;;;;;;;5051186;28;20276;-86
2022/08/18 04:26:13;;;;;;;9.30;6.00;;;;;;;;;;5033745;28;20231;-86
2022/08/18 04:28:40;;;;;;;6.47;5.37;;;;;;;;;;5034048;28;20226;-87
2022/08/18 04:31:11;;;;;;;7.53;6.83;;;;;;;;;;5034287;28;20264;-86
2022/08/18 04:33:39;;;;;;;9.13;6.17;;;;;;;;;;5033355;28;20249;-86
2022/08/18 04:36:12;;;;;;;9.53;6.63;;;;;;;;;;5033703;28;20199;-87
2022/08/18 04:38:40;;;;;;;7.47;6.83;;;;;;;;;;5033747;28;20567;-86
2022/08/18 04:41:08;;;;;;;8.10;7.30;;;;;;;;;;5034985;28;20199;-87
2022/08/18 04:43:36;;;;;;;7.17;6.57;;;;;;;;;;5032907;28;20202;-86
2022/08/18 04:46:05;;;;;;;8.43;7.63;;;;;;;;;;5033597;28;20233;-92
2022/08/18 04:48:36;;;;;;;8.10;7.00;;;;;;;;;;5031746;28;20209;-87
2022/08/18 04:51:08;;;;;;;8.73;7.93;;;;;;;;;;5013037;28;20740;-89
2022/08/18 04:53:44;;;;;;;7.50;6.80;;;;;;;;;;5032188;28;20705;-88
2022/08/18 04:56:16;;;;;;;12.40;8.60;;;;;;;;;;5033843;28;20210;-88
2022/08/18 04:58:44;;;;;;;8.70;7.23;;;;;;;;;;5032950;28;20281;-88
2022/08/18 05:01:11;;;;;;;15.90;8.17;;;;;;;;;;5032576;28;20195;-89
2022/08/18 05:03:40;;;;;;;8.37;7.57;;;;;;;;;;5033204;28;20214;-86
2022/08/18 05:06:07;;;;;;;8.17;6.83;;;;;;;;;;5033609;28;20202;-86
2022/08/18 05:08:34;;;;;;;7.93;7.13;;;;;;;;;;5033554;28;20230;-86
2022/08/18 05:11:01;;;;;;;8.87;7.67;;;;;;;;;;5033704;28;20217;-83
2022/08/18 05:13:29;;;;;;;10.10;8.20;;;;;;;;;;5032468;28;20226;-90
2022/08/18 05:16:02;;;;;;;9.03;8.20;;;;;;;;;;5032363;28;20260;-79
2022/08/18 05:18:29;;;;;;;8.53;7.63;;;;;;;;;;5033709;28;20203;-82
2022/08/18 05:20:58;;;;;;;8.67;7.73;;;;;;;;;;5032518;28;20612;-91
2022/08/18 05:23:26;;;;;;;9.50;8.50;;;;;;;;;;5034187;28;20211;-82
2022/08/18 05:25:57;;;;;;;9.47;8.37;;;;;;;;;;5030014;28;20291;-81
2022/08/18 05:28:24;;;;;;;11.20;9.23;;;;;;;;;;5033520;28;20198;-84
2022/08/18 05:30:51;;;;;;;11.27;10.17;;;;;;;;;;5032556;28;20205;-79
2022/08/18 05:33:18;;;;;;;11.57;9.30;;;;;;;;;;5032809;28;20237;-89
2022/08/18 05:35:49;;;;;;;9.20;8.30;;;;;;;;;;5031369;28;20206;-85
2022/08/18 05:38:26;;;;;;;7.77;6.73;;;;;;;;;;5033455;28;20579;-83
2022/08/18 05:41:05;;;;;;;18.23;5.93;;;;;;;;;;5033000;28;20202;-81
2022/08/18 05:43:32;;;;;;;8.87;6.97;;;;;;;;;;5031880;28;20222;-80
2022/08/18 05:45:59;;;;;;;12.90;5.97;;;;;;;;;;5032316;28;20198;-86
2022/08/18 05:48:26;;;;;;;9.03;5.50;;;;;;;;;;5032383;28;20573;-81
2022/08/18 05:50:54;;;;;;;5.47;4.97;;;;;;;;;;5032466;28;20217;-80
2022/08/18 05:56:45;;;;;;;5.83;5.20;;;;;;;;;;5032382;28;20228;-81
2022/08/18 05:58:52;;;;;;;5.77;4.77;;;;;;;;;;5027970;28;20237;-78
2022/08/18 06:01:20;;;;;;;5.57;4.60;;;;;;;;;;5032320;28;20194;-79
2022/08/18 06:03:50;;;;;;;4.87;4.37;;;;;;;;;;5032295;28;20194;-79
2022/08/18 06:06:21;;;;;;;5.30;4.83;;;;;;;;;;5031199;28;20631;-79
2022/08/18 06:08:58;;;;;;;4.90;4.50;;;;;;;;;;5031935;28;20190;-86
2022/08/18 06:11:25;;;;;;;4.80;4.40;;;;;;;;;;5032602;28;20217;-80
2022/08/18 06:13:56;;;;;;;7.87;4.90;;;;;;;;;;5031178;28;20215;-78
2022/08/18 06:16:26;;;;;;;6.00;4.87;;;;;;;;;;5031478;28;20201;-80
2022/08/18 06:18:57;;;;;;;9.00;5.17;;;;;;;;;;5042578;28;20540;-78
2022/08/18 06:21:33;;;;;;;10.33;5.47;;;;;;;;;;5045922;28;20203;-83
2022/08/18 06:24:08;;;;;;;5.37;4.07;;;;;;;;;;5031963;28;20198;-80
2022/08/18 06:26:40;;;;;;;4.90;4.50;;;;;;;;;;5031652;28;20218;-79
2022/08/18 06:29:17;;;;;;;5.80;5.30;;;;;;;;;;5032040;28;20209;-82
2022/08/18 06:31:47;;;;;;;5.00;4.60;;;;;;;;;;5030862;28;20230;-80
2022/08/18 06:34:20;;;;;;;4.78;4.30;;;;;;;;;;5031491;28;20222;-78
2022/08/18 06:36:52;;;;;;;5.03;4.63;;;;;;;;;;5031778;28;20198;-79
2022/08/18 06:39:26;;;;;;;7.75;4.70;;;;;;;;;;5031788;28;20191;-77
2022/08/18 06:41:53;;;;;;;8.02;4.63;;;;;;;;;;5030956;28;20226;-79
2022/08/18 06:44:24;;;;;;;6.43;5.07;;;;;;;;;;5031303;28;20206;-79
2022/08/18 06:46:55;;;;;;;6.63;4.82;;;;;;;;;;5029503;28;20210;-78
2022/08/18 06:49:31;;;;;;;4.88;4.47;;;;;;;;;;5032432;28;20237;-78
2022/08/18 06:51:58;;;;;;;5.80;4.57;;;;;;;;;;5030736;28;20202;-77
2022/08/18 06:54:29;;;;;;;5.63;4.75;;;;;;;;;;5032058;28;20210;-79
2022/08/18 06:56:58;;;;;;;5.55;4.57;;;;;;;;;;5030786;28;20217;-80
2022/08/18 06:59:27;;;;;;;5.65;4.90;;;;;;;;;;5031776;28;20202;-86
2022/08/18 07:01:59;;;;;;;4.55;4.15;;;;;;;;;;5047785;28;20197;-80
2022/08/18 07:04:59;;;;;;;6.82;4.20;;;;;;;;;;5031348;28;20202;-89
2022/08/18 07:07:32;;;;;;;5.50;4.97;;;;;;;;;;5031078;28;20203;-84
2022/08/18 07:10:01;;;;;;;5.03;4.53;;;;;;;;;;5046102;28;20257;-80
2022/08/18 07:12:29;;;;;;;5.03;4.57;;;;;;;;;;5031183;28;20252;-80
2022/08/18 07:14:59;;;;;;;6.57;4.50;;;;;;;;;;5016464;28;20680;-84
2022/08/18 07:17:28;;;;;;;4.45;4.13;;;;;;;;;;5031220;28;20198;-80
2022/08/18 07:19:59;;;;;;;5.10;4.70;;;;;;;;;;5031032;28;20684;-80
2022/08/18 07:22:26;;;;;;;5.20;4.70;;;;;;;;;;5032640;28;20543;-82
2022/08/18 07:24:54;;;;;;;5.07;4.57;;;;;;;;;;5029663;28;20205;-79
2022/08/18 07:27:45;;;;;;;4.60;4.22;;;;;;;;;;5030900;28;20219;-90
2022/08/18 07:37:06;;;;;;;4.50;4.10;;;;;;;;;;5030224;28;20264;-91
2022/08/18 07:39:36;;;;;;;5.20;4.70;;;;;;;;;;5018410;28;20280;-78
2022/08/18 07:42:07;;;;;;;5.13;4.65;;;;;;;;;;5043735;28;20256;-79
2022/08/18 07:44:43;;;;;;;5.40;4.90;;;;;;;;;;5031115;28;20202;-88
2022/08/18 07:47:16;;;;;;;4.28;3.97;;;;;;;;;;5031751;28;20252;-87
2022/08/18 07:49:43;;;;;;;5.10;4.70;;;;;;;;;;5030827;28;20202;-88
2022/08/18 07:52:18;;;;;;;6.82;4.97;;;;;;;;;;5031098;28;20199;-93
2022/08/18 07:54:53;;;;;;;5.15;4.75;;;;;;;;;;5030668;28;20195;-88
2022/08/18 07:57:27;;;;;;;6.43;4.85;;;;;;;;;;5032654;28;20202;-82
2022/08/18 07:59:59;;;;;;;5.35;4.88;;;;;;;;;;5031401;28;20203;-90
2022/08/18 08:02:32;;;;;;;4.65;4.30;;;;;;;;;;5031595;28;20738;-87
2022/08/18 08:05:07;;;;;;;5.72;5.15;;;;;;;;;;5032102;28;20198;-89
2022/08/18 08:07:40;;;;;;;5.03;4.57;;;;;;;;;;5013225;28;20195;-92
2022/08/18 08:10:20;;;;;;;4.95;4.50;;;;;;;;;;5020572;28;20199;-90
2022/08/18 08:12:53;;;;;;;5.93;5.13;;;;;;;;;;5031753;28;20218;-91
2022/08/18 08:15:26;;;;;;;5.22;4.75;;;;;;;;;;5031788;28;20588;-92
2022/08/18 08:17:57;;;;;;;5.40;5.00;;;;;;;;;;5031446;28;20207;-90
2022/08/18 08:20:30;;;;;;;8.20;5.50;;;;;;;;;;5030415;28;20207;-78
2022/08/18 08:23:04;;;;;;;6.38;5.22;;;;;;;;;;5031438;28;20657;-83
2022/08/18 08:25:37;;;;;;;6.57;5.40;;;;;;;;;;5031433;28;20237;-87
2022/08/18 08:28:09;;;;;;;5.10;4.60;;;;;;;;;;5011393;28;20294;-84
2022/08/18 08:30:43;;;;;;;4.55;4.25;;;;;;;;;;5027972;28;20194;-84
2022/08/18 08:33:15;;;;;;;5.20;4.70;;;;;;;;;;5033642;28;20225;-85
2022/08/18 08:35:46;;;;;;;5.15;4.63;;;;;;;;;;5034758;28;20207;-85
2022/08/18 08:38:15;;;;;;;5.90;4.50;;;;;;;;;;5032699;28;20202;-86
2022/08/18 08:40:51;;;;;;;5.95;4.35;;;;;;;;;;5034789;28;20274;-91
2022/08/18 08:43:23;;;;;;;5.60;4.65;;;;;;;;;;5034322;28;20194;-85
2022/08/18 08:46:00;;;;;;;5.45;5.05;;;;;;;;;;5034207;28;20194;-89
2022/08/18 08:48:30;;;;;;;5.68;5.18;;;;;;;;;;5035606;28;20205;-91
2022/08/18 08:51:00;;;;;;;4.35;4.05;;;;;;;;;;5033710;28;20249;-90
2022/08/18 08:53:30;;;;;;;4.82;4.38;;;;;;;;;;5034291;28;20689;-88
2022/08/18 08:56:01;;;;;;;5.70;4.85;;;;;;;;;;5017235;28;20221;-92
2022/08/18 08:58:32;;;;;;;5.50;5.00;;;;;;;;;;5033473;28;20685;-87
2022/08/18 09:01:01;;;;;;;7.30;5.07;;;;;;;;;;5049791;28;20202;-89
2022/08/18 09:03:44;;;;;;;6.07;5.47;;;;;;;;;;5034380;28;20612;-92
2022/08/18 09:06:22;;;;;;;7.03;4.93;;;;;;;;;;5035478;28;20252;-83
2022/08/18 09:09:25;;;;;;;4.88;4.30;;;;;;;;;;5035373;28;20649;-90
2022/08/18 09:12:12;;;;;;;5.47;5.00;;;;;;;;;;5034057;28;20202;-90
2022/08/18 09:15:03;;;;;;;8.48;4.75;;;;;;;;;;5016947;28;20564;-88
2022/08/18 09:17:46;;;;;;;5.13;4.60;;;;;;;;;;5034202;28;20202;-89
2022/08/18 09:20:27;;;;;;;5.75;5.22;;;;;;;;;;5032797;28;20199;-88
2022/08/18 09:23:00;;;;;;;7.50;5.32;;;;;;;;;;5047474;28;20665;-78
2022/08/18 09:25:33;;;;;;;6.28;4.68;;;;;;;;;;5032890;28;20280;-79
2022/08/18 09:28:11;;;;;;;6.05;5.10;;;;;;;;;;5034113;28;20206;-78
2022/08/18 09:30:43;;;;;;;4.90;4.38;;;;;;;;;;5014055;28;20206;-80
2022/08/18 09:33:24;;;;;;;5.55;4.97;;;;;;;;;;5016384;28;20694;-80
2022/08/18 09:36:04;;;;;;;5.13;4.63;;;;;;;;;;5033807;28;20226;-91
2022/08/18 09:41:44;;;;;;;5.93;4.85;;;;;;;;;;5012607;28;20225;-88
2022/08/18 09:44:16;;;;;;;10.05;5.00;;;;;;;;;;5034581;28;20272;-91
2022/08/18 09:46:58;;;;;;;9.95;4.68;;;;;;;;;;5033894;28;20580;-91
2022/08/18 09:49:59;;;;;;;5.72;4.72;;;;;;;;;;5033235;28;20202;-87
2022/08/18 09:52:55;;;;;;;5.50;4.63;;;;;;;;;;5032167;28;20221;-89
2022/08/18 09:55:53;;;;;;;5.35;4.85;;;;;;;;;;5032667;28;20336;-90
2022/08/18 09:58:48;;;;;;;5.60;4.57;;;;;;;;;;5033302;28;20226;-86
2022/08/18 10:01:20;;;;;;;5.80;5.28;;;;;;;;;;5032256;28;20206;-89
2022/08/18 10:04:26;;;;;;;6.05;5.15;;;;;;;;;;5033675;28;20210;-91
2022/08/18 10:06:55;;;;;;;17.88;4.88;;;;;;;;;;5032023;28;20201;-92
2022/08/18 10:09:34;;;;;;;12.18;4.97;;;;;;;;;;5031357;28;20238;-91
2022/08/18 10:12:36;;;;;;;5.63;5.07;;;;;;;;;;5024782;28;20206;-92
2022/08/18 10:15:14;;;;;;;8.43;5.50;;;;;;;;;;5026495;28;20229;-87
2022/08/18 10:17:50;;;;;;;6.30;5.72;;;;;;;;;;5028264;28;20202;-76
2022/08/18 10:20:26;;;;;;;5.15;4.65;;;;;;;;;;5029893;28;20205;-80
2022/08/18 10:22:55;;;;;;;5.47;5.05;;;;;;;;;;5028590;28;20202;-82
2022/08/18 10:25:35;;;;;;;6.55;5.30;;;;;;;;;;5031489;28;20254;-82
2022/08/18 10:28:04;;;;;;;6.47;5.10;;;;;;;;;;5029211;28;20210;-81
2022/08/18 10:31:12;;;;;;;5.53;5.03;;;;;;;;;;5030009;28;20668;-83
2022/08/18 10:34:00;;;;;;;6.80;5.60;;;;;;;;;;5031458;28;20229;-82
2022/08/18 10:36:40;;;;;;;5.57;5.00;;;;;;;;;;5030305;28;20209;-83
2022/08/18 10:39:11;;;;;;;6.40;5.85;;;;;;;;;;5029199;28;20202;-82
2022/08/18 10:41:49;;;;;;;6.45;5.32;;;;;;;;;;5030003;28;20194;-82
2022/08/18 10:44:21;;;;;;;5.95;5.32;;;;;;;;;;5030237;28;20209;-83
2022/08/18 10:46:48;;;;;;;7.20;5.93;;;;;;;;;;5030371;28;20203;-81
2022/08/18 10:49:22;;;;;;;5.38;4.85;;;;;;;;;;5030517;28;20205;-81
2022/08/18 10:52:11;;;;;;;5.70;4.72;;;;;;;;;;5028563;28;20214;-81
2022/08/18 10:54:53;;;;;;;4.80;4.50;;;;;;;;;;5029308;28;20245;-80
2022/08/18 10:57:26;;;;;;;5.63;5.22;;;;;;;;;;5031806;28;20199;-85
2022/08/18 10:59:58;;;;;;;5.75;5.25;;;;;;;;;;5032156;28;20233;-91
2022/08/18 11:02:40;;;;;;;5.35;4.95;;;;;;;;;;5031951;28;20221;-93
2022/08/18 11:05:10;;;;;;;5.78;5.28;;;;;;;;;;5031042;28;20692;-81
2022/08/18 11:07:41;;;;;;;5.25;4.85;;;;;;;;;;5031883;28;20214;-82
2022/08/18 11:10:19;;;;;;;5.18;4.68;;;;;;;;;;5032215;28;20684;-90
2022/08/18 11:13:00;;;;;;;10.98;6.70;;;;;;;;;;5034280;28;20198;-85
2022/08/18 11:15:34;;;;;;;6.70;4.65;;;;;;;;;;5031887;28;20226;-89
2022/08/18 11:18:10;;;;;;;7.22;5.05;;;;;;;;;;5030491;28;20209;-91
2022/08/18 11:20:38;;;;;;;8.30;5.20;;;;;;;;;;5029607;28;20209;-83
2022/08/18 11:23:13;;;;;;;6.95;5.25;;;;;;;;;;5037973;28;20202;-81
2022/08/18 11:25:43;;;;;;;5.10;4.60;;;;;;;;;;5038083;28;20684;-88
2022/08/18 11:28:16;;;;;;;14.15;5.20;;;;;;;;;;5031328;28;20230;-87
2022/08/18 11:30:43;;;;;;;5.65;4.85;;;;;;;;;;5031107;28;20199;-87
2022/08/18 11:33:15;;;;;;;5.10;4.70;;;;;;;;;;5014701;28;20680;-86
2022/08/18 11:35:47;;;;;;;6.45;4.80;;;;;;;;;;5032105;28;20311;-90
2022/08/18 11:38:17;;;;;;;5.93;5.32;;;;;;;;;;5032580;28;20202;-92
2022/08/18 11:40:48;;;;;;;6.32;4.95;;;;;;;;;;5031245;28;20213;-90
2022/08/18 11:43:17;;;;;;;5.85;5.13;;;;;;;;;;5032608;28;20676;-89
2022/08/18 11:45:52;;;;;;;6.18;4.63;;;;;;;;;;5048286;28;20198;-89
2022/08/18 11:48:23;;;;;;;7.45;5.13;;;;;;;;;;5052303;28;20209;-87
2022/08/18 11:51:00;;;;;;;5.40;5.00;;;;;;;;;;5032615;28;20207;-84
2022/08/18 11:53:41;;;;;;;5.97;5.38;;;;;;;;;;5031603;28;20690;-87
2022/08/18 11:56:17;;;;;;;5.63;5.20;;;;;;;;;;5037798;28;20191;-89
2022/08/18 11:58:46;;;;;;;5.80;5.30;;;;;;;;;;5031411;28;20206;-88
2022/08/18 12:01:38;;;;;;;6.13;5.43;;;;;;;;;;5031360;28;20194;-90
2022/08/18 12:04:16;;;;;;;6.88;5.28;;;;;;;;;;5032986;28;20190;-82
2022/08/18 12:06:58;;;;;;;5.50;5.13;;;;;;;;;;5020493;28;20198;-89
2022/08/18 12:09:30;;;;;;;6.13;5.63;;;;;;;;;;5034365;28;20214;-85
2022/08/18 12:11:59;;;;;;;6.32;5.15;;;;;;;;;;5034998;28;20203;-83
2022/08/18 12:14:28;;;;;;;6.80;4.88;;;;;;;;;;5033868;28;20226;-87
2022/08/18 12:16:55;;;;;;;5.78;5.38;;;;;;;;;;5035102;28;20194;-86
2022/08/18 12:19:23;;;;;;;6.78;5.22;;;;;;;;;;5035119;28;20198;-89
2022/08/18 12:21:52;;;;;;;6.00;5.30;;;;;;;;;;5034943;28;20202;-87
2022/08/18 12:24:21;;;;;;;6.00;5.50;;;;;;;;;;5035182;28;20202;-86
2022/08/18 12:26:49;;;;;;;7.53;5.38;;;;;;;;;;5034204;28;20231;-90
2022/08/18 12:29:17;;;;;;;5.60;5.15;;;;;;;;;;5035927;28;20198;-90
2022/08/18 12:31:44;;;;;;;9.32;6.35;;;;;;;;;;5034866;28;20214;-86
2022/08/18 12:34:11;;;;;;;8.60;5.72;;;;;;;;;;5034373;28;20292;-86
2022/08/18 12:36:38;;;;;;;9.50;5.63;;;;;;;;;;5033051;28;20676;-85
2022/08/18 12:39:05;;;;;;;5.22;4.82;;;;;;;;;;5034482;28;20203;-88
2022/08/18 12:41:32;;;;;;;6.25;5.05;;;;;;;;;;5032361;28;20640;-85
2022/08/18 12:43:59;;;;;;;6.97;5.75;;;;;;;;;;5035012;28;20195;-86
2022/08/18 12:46:27;;;;;;;6.45;5.72;;;;;;;;;;5043806;28;20267;-88
2022/08/18 12:48:54;;;;;;;6.40;5.85;;;;;;;;;;5041644;28;20214;-88
2022/08/18 12:51:21;;;;;;;6.38;5.68;;;;;;;;;;5034312;28;20194;-86
2022/08/18 12:53:48;;;;;;;7.82;6.30;;;;;;;;;;5050122;28;20199;-88
2022/08/18 12:56:19;;;;;;;6.65;6.07;;;;;;;;;;5034403;28;20550;-91
2022/08/18 12:58:46;;;;;;;7.68;5.78;;;;;;;;;;5034759;28;20568;-86
2022/08/18 13:01:13;;;;;;;6.10;5.60;;;;;;;;;;5034403;28;20205;-87
2022/08/18 13:03:43;;;;;;;7.47;6.78;;;;;;;;;;5034637;28;20304;-91
2022/08/18 13:06:10;;;;;;;5.68;5.28;;;;;;;;;;5032543;28;20199;-81
2022/08/18 13:08:37;;;;;;;6.40;5.90;;;;;;;;;;5032761;28;20231;-81
2022/08/18 13:11:09;;;;;;;6.60;6.10;;;;;;;;;;5031975;28;20213;-80
2022/08/18 13:13:36;;;;;;;7.35;6.75;;;;;;;;;;5032250;28;20203;-80
2022/08/18 13:16:04;;;;;;;6.15;5.65;;;;;;;;;;5030832;28;20226;-80
2022/08/18 13:18:30;;;;;;;6.32;5.72;;;;;;;;;;5032104;28;20580;-79
2022/08/18 13:21:00;;;;;;;6.50;5.90;;;;;;;;;;5032660;28;20199;-80
2022/08/18 13:23:27;;;;;;;6.80;5.95;;;;;;;;;;5031347;28;20264;-80
2022/08/18 13:25:54;;;;;;;7.57;6.63;;;;;;;;;;5031283;28;20711;-79
2022/08/18 13:28:21;;;;;;;6.25;5.72;;;;;;;;;;5034045;28;20202;-91
2022/08/18 13:30:48;;;;;;;6.45;5.63;;;;;;;;;;5033356;28;20203;-85
2022/08/18 13:33:15;;;;;;;13.95;6.00;;;;;;;;;;5033905;28;20708;-83
2022/08/18 13:35:42;;;;;;;6.30;5.80;;;;;;;;;;5032581;28;20225;-84
2022/08/18 13:38:12;;;;;;;6.13;5.45;;;;;;;;;;5033185;28;20209;-92
2022/08/18 13:40:39;;;;;;;6.05;5.47;;;;;;;;;;5029487;28;20198;-91
2022/08/18 13:43:07;;;;;;;6.53;5.93;;;;;;;;;;5033383;28;20207;-87
2022/08/18 13:45:34;;;;;;;6.15;5.57;;;;;;;;;;5032740;28;20229;-87
2022/08/18 13:48:01;;;;;;;6.85;6.28;;;;;;;;;;5033295;28;20195;-92
2022/08/18 13:50:28;;;;;;;6.55;5.85;;;;;;;;;;5032963;28;20206;-88
2022/08/18 13:52:55;;;;;;;18.05;6.28;;;;;;;;;;5033263;28;20206;-82
2022/08/18 13:55:27;;;;;;;6.93;6.32;;;;;;;;;;5032725;28;20659;-87
2022/08/18 13:57:54;;;;;;;11.57;6.15;;;;;;;;;;5032405;28;20265;-87
2022/08/18 14:00:22;;;;;;;6.40;5.80;;;;;;;;;;5032817;28;20202;-84
2022/08/18 14:02:52;;;;;;;6.38;5.88;;;;;;;;;;5032110;28;20203;-88
2022/08/18 14:05:19;;;;;;;7.15;6.55;;;;;;;;;;5032364;28;20198;-84
2022/08/18 14:07:46;;;;;;;7.30;6.70;;;;;;;;;;5032118;28;20199;-88
2022/08/18 14:10:15;;;;;;;6.03;5.57;;;;;;;;;;5032760;28;20206;-88
2022/08/18 14:12:45;;;;;;;6.88;6.28;;;;;;;;;;5046537;28;20695;-85
2022/08/18 14:15:13;;;;;;;7.43;6.72;;;;;;;;;;5034081;28;20685;-83
2022/08/18 14:17:41;;;;;;;8.82;7.15;;;;;;;;;;5032137;28;20209;-85
2022/08/18 14:28:25;;;;;;;7.13;6.43;;;;;;;;;;5031807;28;20585;-87
2022/08/18 14:30:52;;;;;;;6.90;6.30;;;;;;;;;;5032003;28;20673;-89
2022/08/18 14:33:21;;;;;;;7.32;6.72;;;;;;;;;;5032655;28;20195;-86
2022/08/18 14:35:48;;;;;;;7.05;6.38;;;;;;;;;;5031410;28;20234;-88
2022/08/18 14:38:15;;;;;;;7.63;7.00;;;;;;;;;;5031169;28;20580;-87
2022/08/18 14:40:42;;;;;;;7.40;6.78;;;;;;;;;;5030187;28;20221;-82
2022/08/18 14:43:09;;;;;;;7.70;7.03;;;;;;;;;;5030720;28;20206;-83
2022/08/18 14:45:38;;;;;;;8.73;7.05;;;;;;;;;;5030657;28;20191;-81
2022/08/18 14:48:06;;;;;;;6.65;6.15;;;;;;;;;;5031130;28;20198;-81
2022/08/18 14:50:33;;;;;;;7.55;6.70;;;;;;;;;;5035113;28;20206;-82
2022/08/18 14:53:00;;;;;;;11.23;6.68;;;;;;;;;;5029452;28;20205;-80
2022/08/18 14:55:27;;;;;;;7.22;6.30;;;;;;;;;;5027237;28;20268;-81
2022/08/18 14:57:55;;;;;;;8.00;7.15;;;;;;;;;;5013435;28;20256;-81
2022/08/18 15:00:22;;;;;;;8.27;7.57;;;;;;;;;;5038925;28;20206;-81
2022/08/18 15:02:52;;;;;;;7.45;6.45;;;;;;;;;;5052104;28;20228;-82
2022/08/18 15:05:19;;;;;;;7.13;6.57;;;;;;;;;;5050892;28;20251;-82
2022/08/18 15:07:47;;;;;;;8.98;7.28;;;;;;;;;;5044575;28;20198;-83
2022/08/18 15:10:15;;;;;;;8.18;7.47;;;;;;;;;;5047660;28;20210;-80
2022/08/18 15:12:43;;;;;;;8.05;7.38;;;;;;;;;;5031956;28;20746;-84
2022/08/18 15:18:34;;;;;;;8.20;7.50;;;;;;;;;;5032325;28;20162;-85
2022/08/18 15:26:31;;;;;;;7.40;6.72;;;;;;;;;;5031363;28;20225;-83
2022/08/18 15:28:59;;;;;;;7.72;6.93;;;;;;;;;;5031588;28;20213;-84
2022/08/18 15:31:28;;;;;;;7.57;6.97;;;;;;;;;;5012894;28;20206;-85
2022/08/18 15:33:57;;;;;;;8.15;7.40;;;;;;;;;;5029172;28;20198;-85
2022/08/18 15:39:45;;;;;;;7.25;6.55;;;;;;;;;;5031998;28;20217;-80
2022/08/18 15:42:12;;;;;;;9.35;6.90;;;;;;;;;;5032120;28;20552;-84
2022/08/18 15:44:41;;;;;;;7.53;7.03;;;;;;;;;;5030365;28;20206;-79
2022/08/18 15:47:08;;;;;;;7.75;7.05;;;;;;;;;;5029917;28;20194;-81
2022/08/18 15:49:37;;;;;;;10.68;6.93;;;;;;;;;;5030961;28;20575;-80